createdAt,value
2022-10-11T00:01:22.209Z,101161.66
2022-10-11T00:03:48.947Z,101173.94
2022-10-11T00:06:15.435Z,101173.06
2022-10-11T00:08:41.962Z,101181.63
2022-10-11T00:11:08.661Z,101180.84
2022-10-11T00:13:35.236Z,101178.09
2022-10-11T00:16:08.108Z,101181.47
2022-10-11T00:18:34.991Z,101192.34
2022-10-11T00:21:11.855Z,101198.94
2022-10-11T00:23:39.532Z,101201.28
2022-10-11T00:26:08.422Z,101198.41
2022-10-11T00:28:36.556Z,101198.84
2022-10-11T00:31:07.749Z,101195.09
2022-10-11T00:33:34.676Z,101193.50
2022-10-11T00:36:01.235Z,101204.06
2022-10-11T00:38:28.259Z,101207.78
2022-10-11T00:40:54.973Z,101211.31
2022-10-11T00:43:23.044Z,101209.50
2022-10-11T00:45:55.544Z,101207.19
2022-10-11T00:48:27.800Z,101210.31
2022-10-11T00:50:57.182Z,101203.91
2022-10-11T00:53:24.541Z,101208.50
2022-10-11T00:55:55.990Z,101208.28
2022-10-11T00:58:23.513Z,101221.78
2022-10-11T01:00:50.849Z,101220.34
2022-10-11T01:03:21.517Z,101219.09
2022-10-11T01:05:48.234Z,101212.91
2022-10-11T01:08:14.722Z,101220.88
2022-10-11T01:10:41.251Z,101213.94
2022-10-11T01:13:33.650Z,101222.81
2022-10-11T01:16:04.664Z,101223.06
2022-10-11T01:18:44.006Z,101220.19
2022-10-11T01:21:22.459Z,101224.31
2022-10-11T01:24:19.970Z,101234.28
2022-10-11T01:27:15.801Z,101229.91
2022-10-11T01:29:57.410Z,101239.28
2022-10-11T01:32:51.799Z,101235.75
2022-10-11T01:35:27.962Z,101236.38
2022-10-11T01:38:02.828Z,101231.44
2022-10-11T01:40:37.066Z,101237.84
2022-10-11T01:43:04.907Z,101238.06
2022-10-11T01:45:33.778Z,101238.06
2022-10-11T01:48:10.242Z,101242.00
2022-10-11T01:50:47.948Z,101244.25
2022-10-11T01:53:35.932Z,101236.41
2022-10-11T01:56:10.337Z,101238.69
2022-10-11T01:59:01.260Z,101247.19
2022-10-11T02:01:52.754Z,101239.31
2022-10-11T02:04:25.621Z,101244.91
2022-10-11T02:07:06.576Z,101251.53
2022-10-11T02:09:48.515Z,101255.50
2022-10-11T02:12:23.979Z,101244.72
2022-10-11T02:14:54.203Z,101256.31
2022-10-11T02:17:25.547Z,101251.56
2022-10-11T02:19:54.579Z,101256.31
2022-10-11T02:22:32.619Z,101251.34
2022-10-11T02:25:02.301Z,101250.72
2022-10-11T02:27:33.111Z,101260.47
2022-10-11T02:30:02.842Z,101253.41
2022-10-11T02:32:31.511Z,101252.19
2022-10-11T02:35:00.940Z,101254.28
2022-10-11T02:37:41.148Z,101256.75
2022-10-11T02:40:20.844Z,101259.66
2022-10-11T02:43:04.024Z,101267.94
2022-10-11T02:45:36.320Z,101268.75
2022-10-11T02:48:04.580Z,101268.97
2022-10-11T02:50:32.037Z,101273.72
2022-10-11T02:52:58.801Z,101277.88
2022-10-11T02:55:25.253Z,101274.34
2022-10-11T02:57:51.786Z,101281.19
2022-10-11T03:00:18.380Z,101281.59
2022-10-11T03:02:45.024Z,101283.69
2022-10-11T03:05:11.641Z,101283.03
2022-10-11T03:07:38.264Z,101287.81
2022-10-11T03:10:05.750Z,101295.88
2022-10-11T03:12:32.414Z,101306.44
2022-10-11T03:14:58.861Z,101293.22
2022-10-11T03:17:36.205Z,101296.50
2022-10-11T03:20:05.102Z,101306.88
2022-10-11T03:22:31.691Z,101309.94
2022-10-11T03:25:03.355Z,101312.00
2022-10-11T03:27:30.979Z,101317.75
2022-10-11T03:29:57.913Z,101330.47
2022-10-11T03:32:24.852Z,101321.09
2022-10-11T03:34:51.386Z,101329.16
2022-10-11T03:37:18.375Z,101332.88
2022-10-11T03:39:45.932Z,101337.81
2022-10-11T03:42:13.578Z,101331.19
2022-10-11T03:44:41.754Z,101334.94
2022-10-11T03:47:08.668Z,101336.97
2022-10-11T03:49:37.716Z,101340.69
2022-10-11T03:52:08.028Z,101341.94
2022-10-11T03:54:34.422Z,101338.75
2022-10-11T03:57:00.996Z,101346.28
2022-10-11T03:59:27.491Z,101348.53
2022-10-11T04:01:54.319Z,101355.56
2022-10-11T04:04:20.938Z,101350.16
2022-10-11T04:06:47.464Z,101356.78
2022-10-11T04:09:14.015Z,101367.09
2022-10-11T04:11:40.622Z,101356.75
2022-10-11T04:14:07.163Z,101365.84
2022-10-11T04:16:34.201Z,101371.06
2022-10-11T04:19:00.893Z,101369.25
2022-10-11T04:21:27.281Z,101372.50
2022-10-11T04:23:54.873Z,101369.41
2022-10-11T04:26:21.430Z,101368.81
2022-10-11T04:28:48.048Z,101378.56
2022-10-11T04:31:14.632Z,101376.66
2022-10-11T04:33:41.166Z,101379.31
2022-10-11T04:36:08.552Z,101381.16
2022-10-11T04:38:35.410Z,101381.72
2022-10-11T04:41:09.168Z,101388.97
2022-10-11T04:43:35.937Z,101385.22
2022-10-11T04:46:03.141Z,101396.94
2022-10-11T04:48:29.985Z,101395.41
2022-10-11T04:50:56.536Z,101393.00
2022-10-11T04:53:23.163Z,101388.09
2022-10-11T04:56:01.925Z,101396.22
2022-10-11T04:58:30.367Z,101403.47
2022-10-11T05:00:57.006Z,101403.47
2022-10-11T05:03:23.617Z,101408.78
2022-10-11T05:05:50.877Z,101409.19
2022-10-11T05:08:17.487Z,101403.47
2022-10-11T05:10:54.109Z,101407.84
2022-10-11T05:13:20.614Z,101410.97
2022-10-11T05:15:47.159Z,101406.50
2022-10-11T05:18:13.681Z,101411.19
2022-10-11T05:20:41.047Z,101412.75
2022-10-11T05:23:08.574Z,101419.03
2022-10-11T05:25:35.246Z,101423.25
2022-10-11T05:28:01.646Z,101415.88
2022-10-11T05:30:28.162Z,101427.47
2022-10-11T05:32:54.746Z,101429.53
2022-10-11T05:35:21.282Z,101428.72
2022-10-11T05:37:47.870Z,101440.56
2022-10-11T05:40:14.358Z,101444.88
2022-10-11T05:42:40.972Z,101438.47
2022-10-11T05:45:08.143Z,101438.22
2022-10-11T05:52:45.921Z,101454.56
2022-10-11T05:55:12.362Z,101462.28
2022-10-11T05:57:38.908Z,101457.22
2022-10-11T06:00:06.282Z,101456.34
2022-10-11T06:02:34.134Z,101462.06
2022-10-11T06:05:00.617Z,101458.28
2022-10-11T06:07:27.185Z,101464.44
2022-10-11T06:09:53.596Z,101468.56
2022-10-11T06:12:21.681Z,101469.84
2022-10-11T06:14:48.145Z,101471.13
2022-10-11T06:17:14.579Z,101475.81
2022-10-11T06:19:40.995Z,101472.97
2022-10-11T06:22:10.268Z,101479.66
2022-10-11T06:24:36.719Z,101483.03
2022-10-11T06:27:03.249Z,101481.38
2022-10-11T06:29:29.707Z,101482.03
2022-10-11T06:31:56.165Z,101486.78
2022-10-11T06:34:22.823Z,101478.00
2022-10-11T06:36:49.216Z,101479.09
2022-10-11T06:39:15.695Z,101486.53
2022-10-11T06:41:42.311Z,101495.59
2022-10-11T06:44:14.160Z,101497.03
2022-10-11T06:46:41.318Z,101498.69
2022-10-11T06:49:08.375Z,101499.81
2022-10-11T06:51:35.979Z,101507.16
2022-10-11T06:54:03.496Z,101504.94
2022-10-11T06:56:31.252Z,101505.69
2022-10-11T06:58:59.544Z,101521.19
2022-10-11T07:01:26.613Z,101525.56
2022-10-11T07:03:55.359Z,101515.19
2022-10-11T07:06:24.345Z,101526.44
2022-10-11T07:08:50.919Z,101528.00
2022-10-11T07:11:18.621Z,101525.88
2022-10-11T07:13:59.215Z,101525.78
2022-10-11T07:16:26.670Z,101522.38
2022-10-11T07:19:00.408Z,101534.97
2022-10-11T07:21:30.151Z,101537.31
2022-10-11T07:23:56.680Z,101533.22
2022-10-11T07:26:23.230Z,101541.19
2022-10-11T07:28:49.760Z,101541.59
2022-10-11T07:31:18.573Z,101543.06
2022-10-11T07:33:45.331Z,101553.25
2022-10-11T07:36:12.867Z,101553.25
2022-10-11T07:38:44.517Z,101556.94
2022-10-11T07:41:11.428Z,101553.63
2022-10-11T07:43:38.556Z,101554.25
2022-10-11T07:46:06.137Z,101551.94
2022-10-11T07:48:34.934Z,101555.66
2022-10-11T07:51:16.653Z,101557.03
2022-10-11T07:53:45.438Z,101558.03
2022-10-11T07:56:14.607Z,101564.44
2022-10-11T07:58:42.681Z,101559.84
2022-10-11T08:01:10.979Z,101569.34
2022-10-11T08:03:38.641Z,101557.44
2022-10-11T08:06:08.475Z,101571.94
2022-10-11T08:08:36.463Z,101568.13
2022-10-11T08:11:04.087Z,101570.53
2022-10-11T08:13:30.933Z,101573.34
2022-10-11T08:15:57.853Z,101573.22
2022-10-11T08:18:24.872Z,101576.84
2022-10-11T08:20:51.578Z,101577.53
2022-10-11T08:23:18.907Z,101569.84
2022-10-11T08:25:47.272Z,101573.06
2022-10-11T08:28:17.890Z,101572.44
2022-10-11T08:30:52.699Z,101578.44
2022-10-11T08:33:21.256Z,101578.13
2022-10-11T08:35:49.079Z,101576.88
2022-10-11T08:38:16.770Z,101576.69
2022-10-11T08:40:48.401Z,101581.44
2022-10-11T08:43:29.551Z,101583.25
2022-10-11T08:46:00.115Z,101590.25
2022-10-11T08:48:55.167Z,101584.97
2022-10-11T08:51:50.901Z,101586.75
2022-10-11T08:54:32.141Z,101587.44
2022-10-11T08:57:00.590Z,101587.81
2022-10-11T08:59:39.804Z,101584.59
2022-10-11T09:02:43.619Z,101587.09
2022-10-11T09:05:18.434Z,101590.19
2022-10-11T09:08:03.595Z,101585.19
2022-10-11T09:10:58.027Z,101594.25
2022-10-11T09:13:41.677Z,101592.13
2022-10-11T09:16:17.806Z,101599.91
2022-10-11T09:19:15.718Z,101596.22
2022-10-11T09:21:56.626Z,101585.91
2022-10-11T09:24:31.078Z,101591.47
2022-10-11T09:27:01.514Z,101583.03
2022-10-11T09:29:46.746Z,101595.56
2022-10-11T09:32:16.333Z,101598.03
2022-10-11T09:34:43.523Z,101592.94
2022-10-11T09:37:24.970Z,101595.63
2022-10-11T09:40:16.211Z,101599.03
2022-10-11T09:42:42.618Z,101599.53
2022-10-11T09:45:19.106Z,101591.59
2022-10-11T09:47:46.493Z,101599.19
2022-10-11T09:50:26.265Z,101591.19
2022-10-11T09:52:55.660Z,101592.88
2022-10-11T09:55:36.468Z,101596.94
2022-10-11T09:58:05.162Z,101597.00
2022-10-11T10:00:33.900Z,101603.69
2022-10-11T10:03:04.575Z,101592.72
2022-10-11T10:05:37.024Z,101589.59
2022-10-11T10:08:24.486Z,101587.44
2022-10-11T10:10:59.406Z,101589.53
2022-10-11T10:13:47.842Z,101590.06
2022-10-11T10:16:44.114Z,101602.09
2022-10-11T10:19:21.673Z,101598.19
2022-10-11T10:21:51.226Z,101592.28
2022-10-11T10:24:32.711Z,101590.59
2022-10-11T10:27:11.182Z,101592.59
2022-10-11T10:29:37.998Z,101595.13
2022-10-11T10:32:15.188Z,101585.13
2022-10-11T10:34:57.306Z,101587.66
2022-10-11T10:37:32.070Z,101592.91
2022-10-11T10:40:25.291Z,101596.25
2022-10-11T10:42:52.599Z,101595.72
2022-10-11T10:45:25.131Z,101583.72
2022-10-11T10:48:26.965Z,101580.78
2022-10-11T10:51:07.087Z,101590.31
2022-10-11T10:53:44.450Z,101590.53
2022-10-11T10:56:17.835Z,101582.59
2022-10-11T10:59:05.624Z,101591.13
2022-10-11T11:01:36.154Z,101584.19
2022-10-11T11:04:07.912Z,101573.59
2022-10-11T11:06:37.436Z,101583.13
2022-10-11T11:09:28.282Z,101583.13
2022-10-11T11:12:16.580Z,101581.47
2022-10-11T11:15:02.421Z,101585.38
2022-10-11T11:17:47.176Z,101588.59
2022-10-11T11:20:41.965Z,101578.91
2022-10-11T11:23:32.064Z,101581.06
2022-10-11T11:26:32.850Z,101581.22
2022-10-11T11:29:38.512Z,101574.47
2022-10-11T11:32:31.212Z,101579.94
2022-10-11T11:35:02.755Z,101569.31
2022-10-11T11:37:42.694Z,101572.94
2022-10-11T11:40:49.238Z,101582.06
2022-10-11T11:43:21.744Z,101582.50
2022-10-11T11:45:54.747Z,101577.56
2022-10-11T11:48:26.579Z,101576.69
2022-10-11T11:51:07.519Z,101576.44
2022-10-11T11:53:48.297Z,101566.72
2022-10-11T11:56:27.752Z,101577.44
2022-10-11T11:59:12.961Z,101569.81
2022-10-11T12:01:45.897Z,101570.34
2022-10-11T12:04:31.902Z,101570.97
2022-10-11T12:07:15.364Z,101566.75
2022-10-11T12:09:45.642Z,101563.75
2022-10-11T12:12:36.562Z,101568.81
2022-10-11T12:15:09.147Z,101563.88
2022-10-11T12:17:59.188Z,101568.38
2022-10-11T12:20:31.626Z,101563.94
2022-10-11T12:23:00.417Z,101564.50
2022-10-11T12:25:26.922Z,101566.72
2022-10-11T12:27:55.753Z,101564.53
2022-10-11T12:30:43.877Z,101567.94
2022-10-11T12:33:23.661Z,101561.84
2022-10-11T12:35:53.236Z,101562.91
2022-10-11T12:38:22.504Z,101563.34
2022-10-11T12:40:54.921Z,101568.59
2022-10-11T12:43:29.108Z,101562.00
2022-10-11T12:45:55.895Z,101557.22
2022-10-11T12:48:48.353Z,101557.34
2022-10-11T12:51:31.585Z,101566.56
2022-10-11T12:54:25.525Z,101561.38
2022-10-11T12:57:00.498Z,101563.34
2022-10-11T12:59:27.197Z,101559.41
2022-10-11T13:01:56.265Z,101558.28
2022-10-11T13:04:26.908Z,101552.81
2022-10-11T13:06:57.013Z,101558.78
2022-10-11T13:09:48.768Z,101558.38
2022-10-11T13:12:21.821Z,101558.28
2022-10-11T13:15:00.737Z,101548.97
2022-10-11T13:17:38.031Z,101551.97
2022-10-11T13:20:19.178Z,101550.94
2022-10-11T13:22:49.651Z,101552.81
2022-10-11T13:25:20.587Z,101552.81
2022-10-11T13:27:49.392Z,101546.25
2022-10-11T13:30:31.445Z,101546.63
2022-10-11T13:32:59.476Z,101544.72
2022-10-11T13:35:31.604Z,101535.22
2022-10-11T13:37:58.440Z,101539.91
2022-10-11T13:40:25.759Z,101543.78
2022-10-11T13:42:54.280Z,101547.16
2022-10-11T13:45:26.099Z,101548.91
2022-10-11T13:47:54.450Z,101547.31
2022-10-11T13:50:32.143Z,101549.38
2022-10-11T13:53:03.272Z,101548.09
2022-10-11T13:55:47.452Z,101552.56
2022-10-11T13:58:34.320Z,101542.78
2022-10-11T14:01:03.527Z,101551.63
2022-10-11T14:03:44.601Z,101541.25
2022-10-11T14:06:11.417Z,101534.66
2022-10-11T14:08:43.422Z,101543.47
2022-10-11T14:11:12.101Z,101532.22
2022-10-11T14:13:43.541Z,101531.16
2022-10-11T14:16:14.538Z,101527.03
2022-10-11T14:18:49.833Z,101525.38
2022-10-11T14:21:19.033Z,101523.66
2022-10-11T14:24:07.647Z,101534.34
2022-10-11T14:26:40.827Z,101531.34
2022-10-11T14:29:19.351Z,101533.22
2022-10-11T14:31:46.350Z,101525.28
2022-10-11T14:34:18.371Z,101529.66
2022-10-11T14:36:44.894Z,101527.75
2022-10-11T14:39:15.627Z,101529.63
2022-10-11T14:41:42.159Z,101526.94
2022-10-11T14:44:08.582Z,101534.38
2022-10-11T14:46:38.765Z,101530.00
2022-10-11T14:49:17.201Z,101530.78
2022-10-11T14:51:45.057Z,101529.44
2022-10-11T14:54:12.446Z,101529.72
2022-10-11T14:56:38.934Z,101525.66
2022-10-11T14:59:06.775Z,101532.78
2022-10-11T15:01:33.297Z,101527.59
2022-10-11T15:03:59.723Z,101531.69
2022-10-11T15:06:30.353Z,101529.78
2022-10-11T15:08:56.878Z,101523.75
2022-10-11T15:11:24.198Z,101531.09
2022-10-11T15:13:50.715Z,101532.50
2022-10-11T15:16:19.874Z,101532.50
2022-10-11T15:18:51.852Z,101530.00
2022-10-11T15:21:21.266Z,101514.66
2022-10-11T15:23:47.842Z,101514.38
2022-10-11T15:26:19.604Z,101505.28
2022-10-11T15:28:46.797Z,101517.03
2022-10-11T15:31:13.750Z,101510.16
2022-10-11T15:33:40.665Z,101512.88
2022-10-11T15:36:12.248Z,101519.19
2022-10-11T15:38:39.335Z,101520.53
2022-10-11T15:41:06.145Z,101520.53
2022-10-11T15:43:32.616Z,101519.72
2022-10-11T15:45:59.209Z,101525.47
2022-10-11T15:48:26.896Z,101530.66
2022-10-11T15:50:54.426Z,101522.97
2022-10-11T15:53:28.671Z,101522.97
2022-10-11T15:55:57.349Z,101522.34
2022-10-11T15:58:32.833Z,101520.13
2022-10-11T16:01:05.482Z,101524.13
2022-10-11T16:03:33.320Z,101526.75
2022-10-11T16:06:04.838Z,101527.50
2022-10-11T16:08:33.832Z,101537.84
2022-10-11T16:11:00.832Z,101529.25
2022-10-11T16:13:27.345Z,101525.09
2022-10-11T16:15:53.806Z,101532.09
2022-10-11T16:18:21.156Z,101527.47
2022-10-11T16:20:51.367Z,101540.72
2022-10-11T16:23:19.955Z,101540.03
2022-10-11T16:25:55.501Z,101533.34
2022-10-11T16:28:21.996Z,101550.72
2022-10-11T16:30:48.608Z,101544.59
2022-10-11T16:33:15.035Z,101549.88
2022-10-11T16:35:42.029Z,101540.25
2022-10-11T16:38:12.120Z,101547.91
2022-10-11T16:40:40.164Z,101546.28
2022-10-11T16:43:07.942Z,101551.53
2022-10-11T16:45:35.137Z,101554.88
2022-10-11T16:48:01.665Z,101558.72
2022-10-11T16:50:29.123Z,101551.84
2022-10-11T16:52:55.964Z,101549.63
2022-10-11T16:55:22.823Z,101564.00
2022-10-11T16:57:49.283Z,101558.56
2022-10-11T17:00:16.108Z,101558.03
2022-10-11T17:02:42.585Z,101560.47
2022-10-11T17:05:09.106Z,101568.53
2022-10-11T17:07:35.621Z,101562.88
2022-10-11T17:10:02.037Z,101567.94
2022-10-11T17:12:29.082Z,101562.50
2022-10-11T17:14:56.258Z,101561.38
2022-10-11T17:17:22.719Z,101561.88
2022-10-11T17:19:49.343Z,101562.13
2022-10-11T17:22:18.907Z,101566.50
2022-10-11T17:24:45.950Z,101572.06
2022-10-11T17:27:12.978Z,101574.22
2022-10-11T17:29:39.432Z,101567.72
2022-10-11T17:32:06.296Z,101567.47
2022-10-11T17:34:32.808Z,101569.38
2022-10-11T17:36:59.245Z,101569.47
2022-10-11T17:39:25.894Z,101567.56
2022-10-11T17:41:52.737Z,101570.06
2022-10-11T17:44:19.582Z,101579.06
2022-10-11T17:46:47.331Z,101584.78
2022-10-11T17:49:14.131Z,101582.47
2022-10-11T17:51:41.624Z,101579.34
2022-10-11T17:54:12.682Z,101571.97
2022-10-11T17:56:41.590Z,101575.47
2022-10-11T17:59:14.443Z,101572.66
2022-10-11T18:01:41.138Z,101569.84
2022-10-11T18:04:13.437Z,101579.81
2022-10-11T18:06:39.993Z,101564.28
2022-10-11T18:09:07.225Z,101571.03
2022-10-11T18:11:33.900Z,101567.41
2022-10-11T18:14:00.390Z,101570.16
2022-10-11T18:16:28.621Z,101570.72
2022-10-11T18:18:57.446Z,101559.81
2022-10-11T18:21:33.684Z,101568.81
2022-10-11T18:24:02.053Z,101565.56
2022-10-11T18:26:30.642Z,101575.44
2022-10-11T18:28:58.025Z,101571.34
2022-10-11T18:31:27.461Z,101568.09
2022-10-11T18:33:54.639Z,101569.81
2022-10-11T18:36:24.661Z,101571.06
2022-10-11T18:38:56.677Z,101569.84
2022-10-11T18:41:30.381Z,101564.50
2022-10-11T18:44:00.229Z,101563.09
2022-10-11T18:46:27.233Z,101561.91
2022-10-11T18:48:55.694Z,101565.66
2022-10-11T18:51:25.119Z,101556.97
2022-10-11T18:53:51.997Z,101564.25
2022-10-11T18:56:21.495Z,101564.28
2022-10-11T18:58:50.218Z,101557.66
2022-10-11T19:01:20.415Z,101557.47
2022-10-11T19:03:50.152Z,101563.53
2022-10-11T19:06:18.288Z,101555.66
2022-10-11T19:08:53.444Z,101550.25
2022-10-11T19:11:25.298Z,101546.53
2022-10-11T19:14:02.351Z,101557.31
2022-10-11T19:16:29.929Z,101550.69
2022-10-11T19:18:57.809Z,101548.22
2022-10-11T19:21:24.881Z,101551.94
2022-10-11T19:23:52.064Z,101547.41
2022-10-11T19:26:22.351Z,101551.56
2022-10-11T19:28:53.832Z,101551.91
2022-10-11T19:31:20.439Z,101555.63
2022-10-11T19:33:49.462Z,101558.16
2022-10-11T19:36:17.013Z,101566.41
2022-10-11T19:38:46.172Z,101560.19
2022-10-11T19:41:14.509Z,101555.59
2022-10-11T19:43:40.997Z,101551.03
2022-10-11T19:46:10.131Z,101553.94
2022-10-11T19:48:38.177Z,101555.78
2022-10-11T19:51:09.752Z,101557.44
2022-10-11T19:53:36.664Z,101558.88
2022-10-11T19:56:05.823Z,101560.94
2022-10-11T19:58:37.788Z,101558.44
2022-10-11T20:01:19.130Z,101562.16
2022-10-11T20:03:49.070Z,101564.22
2022-10-11T20:06:16.096Z,101559.00
2022-10-11T20:08:44.249Z,101557.56
2022-10-11T20:11:15.638Z,101557.53
2022-10-11T20:13:42.600Z,101554.41
2022-10-11T20:16:14.663Z,101555.63
2022-10-11T20:18:41.674Z,101555.38
2022-10-11T20:21:16.727Z,101554.78
2022-10-11T20:23:46.152Z,101556.19
2022-10-11T20:26:17.371Z,101560.94
2022-10-11T20:28:44.724Z,101556.13
2022-10-11T20:31:22.926Z,101560.22
2022-10-11T20:33:49.674Z,101560.16
2022-10-11T20:36:17.575Z,101553.34
2022-10-11T20:38:46.006Z,101564.94
2022-10-11T20:41:18.336Z,101565.50
2022-10-11T20:43:49.531Z,101564.44
2022-10-11T20:46:18.595Z,101563.75
2022-10-11T20:48:58.866Z,101563.38
2022-10-11T20:51:28.710Z,101564.94
2022-10-11T20:53:55.462Z,101564.50
2022-10-11T20:56:22.138Z,101564.72
2022-10-11T20:58:53.999Z,101562.06
2022-10-11T21:01:23.472Z,101571.50
2022-10-11T21:03:50.476Z,101561.53
2022-10-11T21:06:16.981Z,101556.53
2022-10-11T21:08:43.510Z,101570.38
2022-10-11T21:11:10.727Z,101564.75
2022-10-11T21:13:37.700Z,101560.16
2022-10-11T21:16:18.235Z,101554.84
2022-10-11T21:18:44.759Z,101555.53
2022-10-11T21:21:13.748Z,101557.59
2022-10-11T21:23:43.916Z,101557.34
2022-10-11T21:26:12.888Z,101564.97
2022-10-11T21:28:40.614Z,101560.16
2022-10-11T21:31:12.604Z,101564.50
2022-10-11T21:33:40.352Z,101562.97
2022-10-11T21:36:18.557Z,101557.34
2022-10-11T21:38:45.547Z,101556.25
2022-10-11T21:41:20.764Z,101560.81
2022-10-11T21:43:48.197Z,101557.59
2022-10-11T21:46:19.371Z,101560.09
2022-10-11T21:48:46.363Z,101555.06
2022-10-11T21:51:25.299Z,101551.34
2022-10-11T21:53:52.552Z,101551.84
2022-10-11T21:56:19.500Z,101552.19
2022-10-11T21:58:49.967Z,101558.22
2022-10-11T22:01:18.287Z,101561.84
2022-10-11T22:03:45.404Z,101566.75
2022-10-11T22:06:12.132Z,101561.75
2022-10-11T22:08:39.108Z,101564.19
2022-10-11T22:11:06.592Z,101560.91
2022-10-11T22:13:33.895Z,101561.66
2022-10-11T22:16:05.068Z,101557.16
2022-10-11T22:18:33.697Z,101560.97
2022-10-11T22:21:13.533Z,101560.22
2022-10-11T22:23:41.769Z,101560.69
2022-10-11T22:26:11.168Z,101558.38
2022-10-11T22:28:37.985Z,101558.31
2022-10-11T22:31:06.180Z,101558.66
2022-10-11T22:33:32.821Z,101553.88
2022-10-11T22:36:01.465Z,101555.88
2022-10-11T22:38:28.297Z,101556.66
2022-10-11T22:40:54.977Z,101549.56
2022-10-11T22:43:21.472Z,101550.63
2022-10-11T22:45:48.064Z,101540.47
2022-10-11T22:48:14.733Z,101544.56
2022-10-11T22:50:42.133Z,101550.25
2022-10-11T22:53:09.094Z,101554.34
2022-10-11T22:55:35.861Z,101549.53
2022-10-11T22:58:02.197Z,101548.50
2022-10-11T23:00:28.867Z,101542.31
2022-10-11T23:02:55.340Z,101543.72
2022-10-11T23:05:21.912Z,101540.56
2022-10-11T23:07:48.869Z,101551.66
2022-10-11T23:10:15.542Z,101539.63
2022-10-11T23:12:44.354Z,101542.13
2022-10-11T23:15:11.629Z,101547.41
2022-10-11T23:17:38.720Z,101553.97
2022-10-11T23:20:06.114Z,101559.69
2022-10-11T23:22:32.597Z,101554.88
2022-10-11T23:24:59.064Z,101560.22
2022-10-11T23:27:26.979Z,101557.94
2022-10-11T23:29:53.491Z,101559.31
2022-10-11T23:32:19.942Z,101564.00
2022-10-11T23:34:46.482Z,101558.00
2022-10-11T23:37:13.006Z,101563.72
2022-10-11T23:39:39.516Z,101557.72
2022-10-11T23:42:06.074Z,101567.97
2022-10-11T23:44:35.588Z,101571.84
2022-10-11T23:47:04.677Z,101573.69
2022-10-11T23:49:33.730Z,101574.88
2022-10-11T23:52:00.178Z,101572.28
2022-10-11T23:54:26.816Z,101574.97
2022-10-11T23:56:53.235Z,101566.44
2022-10-11T23:59:21.155Z,101574.00
